createdAt,value
2023-05-08T00:02:04.731Z,71.95
2023-05-08T00:04:32.767Z,72.17
2023-05-08T00:07:00.523Z,72.25
2023-05-08T00:09:28.173Z,73.14
2023-05-08T00:11:56.115Z,73.43
2023-05-08T00:14:23.843Z,73.30
2023-05-08T00:16:51.599Z,73.00
2023-05-08T00:19:19.799Z,72.09
2023-05-08T00:21:47.417Z,72.00
2023-05-08T00:24:15.222Z,71.62
2023-05-08T00:26:43.388Z,73.73
2023-05-08T00:29:11.269Z,74.49
2023-05-08T00:31:38.972Z,74.41
2023-05-08T00:34:06.947Z,74.70
2023-05-08T00:36:34.531Z,75.79
2023-05-08T00:39:02.194Z,75.25
2023-05-08T00:41:30.321Z,74.64
2023-05-08T00:43:58.291Z,74.02
2023-05-08T00:46:26.162Z,72.79
2023-05-08T00:48:54.253Z,74.63
2023-05-08T00:51:22.032Z,75.06
2023-05-08T00:53:49.681Z,74.48
2023-05-08T00:56:18.843Z,75.11
2023-05-08T00:58:46.887Z,74.58
2023-05-08T01:01:15.169Z,74.66
2023-05-08T01:03:43.555Z,75.08
2023-05-08T01:06:11.321Z,73.04
2023-05-08T01:08:39.285Z,73.70
2023-05-08T01:11:19.907Z,73.85
2023-05-08T01:14:24.792Z,73.30
2023-05-08T01:17:21.735Z,72.92
2023-05-08T01:20:03.499Z,72.25
2023-05-08T01:22:49.771Z,73.11
2023-05-08T01:25:41.828Z,73.50
2023-05-08T01:28:26.357Z,74.49
2023-05-08T01:31:18.336Z,75.09
2023-05-08T01:33:59.815Z,75.79
2023-05-08T01:36:37.583Z,76.74
2023-05-08T01:39:17.824Z,76.93
2023-05-08T01:41:50.686Z,75.55
2023-05-08T01:44:21.700Z,75.54
2023-05-08T01:46:50.514Z,76.22
2023-05-08T01:49:28.489Z,76.30
2023-05-08T01:51:59.501Z,76.01
2023-05-08T01:54:35.361Z,74.65
2023-05-08T01:57:03.696Z,73.96
2023-05-08T01:59:33.741Z,75.88
2023-05-08T02:02:02.261Z,76.98
2023-05-08T02:04:30.841Z,76.23
2023-05-08T02:06:58.912Z,76.53
2023-05-08T02:09:28.649Z,76.87
2023-05-08T02:11:57.123Z,75.31
2023-05-08T02:14:26.825Z,76.58
2023-05-08T02:16:55.792Z,76.29
2023-05-08T02:19:25.251Z,76.05
2023-05-08T02:21:55.350Z,77.07
2023-05-08T02:24:24.147Z,76.89
2023-05-08T02:26:53.223Z,77.32
2023-05-08T02:29:22.485Z,76.59
2023-05-08T02:32:05.039Z,78.18
2023-05-08T02:35:02.000Z,78.99
2023-05-08T02:37:32.652Z,78.52
2023-05-08T02:40:01.498Z,78.06
2023-05-08T02:42:30.655Z,77.38
2023-05-08T02:44:59.551Z,76.56
2023-05-08T02:47:37.269Z,76.11
2023-05-08T02:50:15.244Z,75.44
2023-05-08T02:52:52.878Z,76.28
2023-05-08T02:55:27.448Z,76.24
2023-05-08T02:58:44.710Z,75.47
2023-05-08T03:01:41.242Z,75.75
2023-05-08T03:04:11.408Z,76.63
2023-05-08T03:06:42.876Z,77.92
2023-05-08T03:09:12.404Z,77.27
2023-05-08T03:11:42.529Z,76.30
2023-05-08T03:14:12.737Z,76.02
2023-05-08T03:16:42.050Z,77.00
2023-05-08T03:19:45.144Z,77.45
2023-05-08T03:22:17.416Z,77.51
2023-05-08T03:24:48.541Z,76.85
2023-05-08T03:27:17.988Z,76.06
2023-05-08T03:29:46.373Z,77.12
2023-05-08T03:32:14.678Z,77.36
2023-05-08T03:34:46.690Z,77.01
2023-05-08T03:37:14.997Z,76.30
2023-05-08T03:39:46.429Z,76.83
2023-05-08T03:42:14.456Z,76.77
2023-05-08T03:44:43.058Z,75.69
2023-05-08T03:47:11.484Z,75.55
2023-05-08T03:49:42.617Z,76.82
2023-05-08T03:52:12.269Z,77.72
2023-05-08T03:54:41.169Z,77.79
2023-05-08T03:57:09.558Z,76.44
2023-05-08T04:00:02.359Z,76.30
2023-05-08T04:03:07.913Z,76.62
2023-05-08T04:05:39.888Z,76.86
2023-05-08T04:08:27.188Z,75.62
2023-05-08T04:11:04.491Z,75.72
2023-05-08T04:13:37.327Z,75.16
2023-05-08T04:16:22.210Z,74.86
2023-05-08T04:19:01.964Z,74.78
2023-05-08T04:21:34.263Z,74.39
2023-05-08T04:24:03.440Z,73.87
2023-05-08T04:26:31.909Z,73.92
2023-05-08T04:29:20.452Z,73.95
2023-05-08T04:31:50.693Z,73.48
2023-05-08T04:34:19.485Z,71.16
2023-05-08T04:36:47.499Z,70.60
2023-05-08T04:39:15.757Z,70.64
2023-05-08T04:41:44.603Z,69.31
2023-05-08T04:44:14.574Z,68.40
2023-05-08T04:46:45.803Z,68.40
2023-05-08T04:49:14.618Z,68.94
2023-05-08T04:51:44.652Z,68.13
2023-05-08T04:54:12.713Z,67.40
2023-05-08T04:56:44.930Z,68.32
2023-05-08T04:59:14.200Z,68.42
2023-05-08T05:01:51.615Z,67.52
2023-05-08T05:04:25.965Z,67.02
2023-05-08T05:06:55.771Z,66.88
2023-05-08T05:09:23.690Z,66.60
2023-05-08T05:11:51.500Z,67.35
2023-05-08T05:14:20.280Z,67.11
2023-05-08T05:16:48.754Z,65.99
2023-05-08T05:19:19.554Z,65.41
2023-05-08T05:21:47.428Z,65.89
2023-05-08T05:24:15.719Z,66.45
2023-05-08T05:26:43.462Z,65.88
2023-05-08T05:29:11.588Z,65.60
2023-05-08T05:31:39.550Z,65.48
2023-05-08T05:34:07.570Z,64.63
2023-05-08T05:36:36.154Z,66.46
2023-05-08T05:39:03.889Z,65.66
2023-05-08T05:41:31.717Z,66.34
2023-05-08T05:43:59.755Z,66.56
2023-05-08T05:46:27.670Z,66.48
2023-05-08T05:48:55.400Z,66.30
2023-05-08T05:51:23.611Z,65.45
2023-05-08T05:53:51.267Z,65.00
2023-05-08T05:56:19.213Z,65.66
2023-05-08T05:58:47.562Z,63.70
2023-05-08T06:01:15.478Z,64.50
2023-05-08T06:03:44.230Z,63.65
2023-05-08T06:06:11.903Z,65.10
2023-05-08T06:08:39.534Z,64.26
2023-05-08T06:11:07.897Z,63.24
2023-05-08T06:13:35.577Z,62.41
2023-05-08T06:16:05.203Z,62.47
2023-05-08T06:18:33.100Z,62.34
2023-05-08T06:21:00.891Z,62.21
2023-05-08T06:23:28.567Z,62.90
2023-05-08T06:25:56.522Z,61.50
2023-05-08T06:28:24.314Z,61.25
2023-05-08T06:30:52.548Z,61.44
2023-05-08T06:33:20.492Z,60.72
2023-05-08T06:35:48.718Z,62.23
2023-05-08T06:38:16.612Z,60.39
2023-05-08T06:40:45.728Z,58.60
2023-05-08T06:43:13.637Z,58.15
2023-05-08T06:45:41.293Z,57.51
2023-05-08T06:48:09.334Z,58.59
2023-05-08T06:50:40.143Z,58.06
2023-05-08T06:53:07.901Z,57.53
2023-05-08T06:55:35.997Z,56.71
2023-05-08T06:58:03.653Z,55.09
2023-05-08T07:00:31.458Z,56.17
2023-05-08T07:02:59.554Z,54.48
2023-05-08T07:05:27.343Z,54.12
2023-05-08T07:07:55.115Z,55.69
2023-05-08T07:10:23.098Z,56.00
2023-05-08T07:12:50.812Z,54.50
2023-05-08T07:17:52.598Z,53.72
2023-05-08T07:20:20.301Z,53.61
2023-05-08T07:22:48.115Z,53.58
2023-05-08T07:25:16.779Z,54.54
2023-05-08T07:27:44.806Z,54.62
2023-05-08T07:30:12.644Z,54.32
2023-05-08T07:32:40.652Z,53.90
2023-05-08T07:35:10.450Z,52.25
2023-05-08T07:37:39.765Z,54.32
2023-05-08T07:40:08.064Z,53.72
2023-05-08T07:42:42.414Z,51.61
2023-05-08T07:45:11.561Z,52.16
2023-05-08T07:47:48.752Z,54.01
2023-05-08T07:50:16.830Z,53.75
2023-05-08T07:52:49.794Z,52.69
2023-05-08T07:55:18.995Z,52.55
2023-05-08T07:57:46.695Z,52.50
2023-05-08T08:00:15.365Z,51.50
2023-05-08T08:02:44.996Z,50.87
2023-05-08T08:05:13.146Z,49.05
2023-05-08T08:07:41.182Z,51.21
2023-05-08T08:10:09.311Z,51.32
2023-05-08T08:12:37.229Z,48.83
2023-05-08T08:15:05.391Z,50.56
2023-05-08T08:17:33.327Z,49.64
2023-05-08T08:20:01.044Z,48.81
2023-05-08T08:22:28.847Z,51.45
2023-05-08T08:24:56.941Z,49.26
2023-05-08T08:27:24.531Z,48.49
2023-05-08T08:29:58.579Z,47.36
2023-05-08T08:32:32.846Z,47.20
2023-05-08T08:35:00.881Z,47.61
2023-05-08T08:37:28.504Z,49.14
2023-05-08T08:39:56.574Z,47.09
2023-05-08T08:42:24.491Z,46.97
2023-05-08T08:44:52.770Z,45.76
2023-05-08T08:47:23.047Z,47.36
2023-05-08T08:49:51.348Z,47.10
2023-05-08T08:52:47.548Z,46.65
2023-05-08T08:55:18.276Z,46.03
2023-05-08T08:57:58.530Z,44.10
2023-05-08T09:00:28.772Z,45.08
2023-05-08T09:02:56.487Z,46.59
2023-05-08T09:05:24.282Z,43.92
2023-05-08T09:07:54.659Z,42.68
2023-05-08T09:10:24.377Z,42.21
2023-05-08T09:12:52.687Z,42.45
2023-05-08T09:15:20.374Z,43.58
2023-05-08T09:17:48.104Z,42.51
2023-05-08T09:20:16.305Z,44.05
2023-05-08T09:22:44.351Z,41.78
2023-05-08T09:25:12.338Z,42.92
2023-05-08T09:27:40.604Z,42.65
2023-05-08T09:30:09.692Z,43.06
2023-05-08T09:32:40.619Z,42.62
2023-05-08T09:35:10.383Z,40.31
2023-05-08T09:37:39.451Z,40.27
2023-05-08T09:40:27.274Z,41.34
2023-05-08T09:42:55.170Z,43.31
2023-05-08T09:45:30.740Z,39.65
2023-05-08T09:47:58.872Z,41.69
2023-05-08T09:50:26.634Z,42.05
2023-05-08T09:52:54.380Z,39.85
2023-05-08T09:55:22.383Z,39.70
2023-05-08T09:57:58.644Z,40.32
2023-05-08T10:00:29.217Z,39.03
2023-05-08T10:03:02.119Z,38.76
2023-05-08T10:05:34.993Z,39.32
2023-05-08T10:08:23.128Z,40.15
2023-05-08T10:10:51.251Z,41.62
2023-05-08T10:13:19.294Z,39.66
2023-05-08T10:15:52.778Z,39.51
2023-05-08T10:18:22.378Z,39.02
2023-05-08T10:20:50.544Z,36.09
2023-05-08T10:23:18.500Z,38.29
2023-05-08T10:25:48.293Z,39.12
2023-05-08T10:28:35.902Z,36.67
2023-05-08T10:31:04.173Z,38.07
2023-05-08T10:33:32.075Z,35.63
2023-05-08T10:36:00.379Z,37.25
2023-05-08T10:38:30.752Z,38.19
2023-05-08T10:41:02.286Z,36.58
2023-05-08T10:43:30.513Z,35.11
2023-05-08T10:45:58.854Z,37.11
2023-05-08T10:48:36.591Z,36.44
2023-05-08T10:51:35.638Z,36.82
2023-05-08T10:54:13.660Z,35.04
2023-05-08T10:56:41.517Z,36.40
2023-05-08T10:59:17.922Z,34.88
2023-05-08T11:01:49.873Z,36.54
2023-05-08T11:04:22.489Z,35.86
2023-05-08T11:06:50.901Z,34.89
2023-05-08T11:09:23.062Z,36.47
2023-05-08T11:12:07.257Z,35.71
2023-05-08T11:14:37.261Z,36.07
2023-05-08T11:17:06.004Z,34.94
2023-05-08T11:19:34.152Z,34.35
2023-05-08T11:22:10.868Z,31.96
2023-05-08T11:24:55.056Z,31.46
2023-05-08T11:27:50.506Z,34.42
2023-05-08T11:30:25.407Z,32.58
2023-05-08T11:33:16.591Z,35.30
2023-05-08T11:35:53.941Z,33.00
2023-05-08T11:38:27.779Z,31.64
2023-05-08T11:41:00.897Z,32.30
2023-05-08T11:43:34.275Z,31.36
2023-05-08T11:46:07.457Z,33.85
2023-05-08T11:48:35.706Z,32.23
2023-05-08T11:51:03.776Z,33.25
2023-05-08T11:53:31.753Z,32.65
2023-05-08T11:55:59.861Z,32.16
2023-05-08T11:58:28.194Z,31.82
2023-05-08T12:00:56.004Z,31.42
2023-05-08T12:03:24.937Z,31.37
2023-05-08T12:05:56.300Z,32.07
2023-05-08T12:08:26.263Z,32.40
2023-05-08T12:10:57.079Z,31.25
2023-05-08T12:13:27.264Z,30.92
2023-05-08T12:16:00.475Z,31.00
2023-05-08T12:18:28.792Z,30.34
2023-05-08T12:21:01.614Z,31.26
2023-05-08T12:23:30.052Z,30.45
2023-05-08T12:26:00.930Z,30.20
2023-05-08T12:28:30.400Z,30.36
2023-05-08T12:30:58.454Z,31.60
2023-05-08T12:33:26.279Z,30.54
2023-05-08T12:35:56.625Z,31.90
2023-05-08T12:38:27.790Z,29.16
2023-05-08T12:40:55.976Z,31.23
2023-05-08T12:43:36.964Z,30.06
2023-05-08T12:46:11.152Z,29.10
2023-05-08T12:48:39.360Z,30.68
2023-05-08T12:51:07.297Z,30.63
2023-05-08T12:53:34.978Z,30.28
2023-05-08T12:56:03.863Z,30.01
2023-05-08T12:58:33.425Z,32.51
2023-05-08T13:01:11.638Z,30.68
2023-05-08T13:03:40.853Z,30.51
2023-05-08T13:06:19.728Z,27.86
2023-05-08T13:08:53.418Z,30.29
2023-05-08T13:11:33.452Z,29.65
2023-05-08T13:14:01.437Z,29.77
2023-05-08T13:16:29.632Z,28.98
2023-05-08T13:18:57.338Z,28.26
2023-05-08T13:21:27.336Z,28.94
2023-05-08T13:23:55.404Z,28.83
2023-05-08T13:26:25.786Z,28.73
2023-05-08T13:28:56.216Z,27.42
2023-05-08T13:31:24.411Z,28.16
2023-05-08T13:33:52.198Z,28.31
2023-05-08T13:36:20.395Z,28.14
2023-05-08T13:38:48.126Z,28.89
2023-05-08T13:41:15.757Z,25.39
2023-05-08T13:43:44.089Z,29.48
2023-05-08T13:48:39.123Z,29.40
2023-05-08T13:51:07.041Z,29.13
2023-05-08T13:53:34.748Z,29.07
2023-05-08T13:56:02.319Z,28.44
2023-05-08T13:58:30.209Z,29.04
2023-05-08T14:00:57.858Z,30.37
2023-05-08T14:03:25.979Z,28.10
2023-05-08T14:05:53.869Z,28.51
2023-05-08T14:08:21.560Z,27.44
2023-05-08T14:10:49.491Z,28.49
2023-05-08T14:13:17.666Z,28.55
2023-05-08T14:15:45.612Z,27.88
2023-05-08T14:18:13.845Z,28.47
2023-05-08T14:20:42.086Z,28.03
2023-05-08T14:23:10.764Z,27.88
2023-05-08T14:25:38.718Z,28.81
2023-05-08T14:28:06.375Z,28.75
2023-05-08T14:30:33.982Z,28.79
2023-05-08T14:33:02.378Z,28.10
2023-05-08T14:35:30.097Z,28.43
2023-05-08T14:37:57.903Z,28.72
2023-05-08T14:40:25.773Z,30.34
2023-05-08T14:42:53.554Z,31.24
2023-05-08T14:45:21.254Z,30.58
2023-05-08T14:47:49.342Z,31.70
2023-05-08T14:50:17.564Z,31.04
2023-05-08T14:52:45.692Z,30.08
2023-05-08T14:55:14.065Z,29.18
2023-05-08T14:57:42.284Z,30.23
2023-05-08T15:00:10.834Z,28.78
2023-05-08T15:02:39.108Z,28.67
2023-05-08T15:05:10.913Z,28.93
2023-05-08T15:07:45.706Z,30.18
2023-05-08T15:10:13.481Z,30.83
2023-05-08T15:12:41.367Z,31.14
2023-05-08T15:15:09.624Z,32.33
2023-05-08T15:17:37.324Z,31.49
2023-05-08T15:20:05.996Z,32.50
2023-05-08T15:22:34.258Z,32.80
2023-05-08T15:25:01.975Z,31.38
2023-05-08T15:27:30.034Z,30.93
2023-05-08T15:29:58.279Z,31.23
2023-05-08T15:32:26.098Z,31.05
2023-05-08T15:34:54.363Z,31.53
2023-05-08T15:37:22.326Z,31.45
2023-05-08T15:39:49.965Z,32.96
2023-05-08T15:42:17.581Z,32.58
2023-05-08T15:47:16.612Z,33.54
2023-05-08T15:49:44.507Z,33.70
2023-05-08T15:52:12.347Z,33.78
2023-05-08T15:54:39.989Z,33.64
2023-05-08T15:57:07.669Z,33.68
2023-05-08T15:59:35.756Z,35.81
2023-05-08T16:02:04.281Z,36.10
2023-05-08T16:04:32.512Z,35.79
2023-05-08T16:07:00.422Z,34.96
2023-05-08T16:09:27.999Z,37.15
2023-05-08T16:11:56.132Z,36.24
2023-05-08T16:14:29.126Z,36.51
2023-05-08T16:16:57.017Z,36.76
2023-05-08T16:19:24.685Z,37.26
2023-05-08T16:21:52.457Z,36.97
2023-05-08T16:24:20.504Z,36.73
2023-05-08T16:26:48.139Z,37.66
2023-05-08T16:29:16.463Z,38.14
2023-05-08T16:31:47.387Z,38.24
2023-05-08T16:34:15.325Z,38.78
2023-05-08T16:36:43.102Z,39.36
2023-05-08T16:39:12.730Z,38.74
2023-05-08T16:41:40.494Z,39.56
2023-05-08T16:44:08.159Z,39.95
2023-05-08T16:46:36.080Z,40.67
2023-05-08T16:49:03.693Z,41.24
2023-05-08T16:51:31.310Z,40.31
2023-05-08T16:53:59.603Z,40.53
2023-05-08T16:56:30.581Z,40.63
2023-05-08T16:58:58.628Z,40.69
2023-05-08T17:01:27.026Z,40.98
2023-05-08T17:03:54.769Z,40.59
2023-05-08T17:06:22.453Z,40.76
2023-05-08T17:08:50.513Z,41.79
2023-05-08T17:11:18.150Z,40.16
2023-05-08T17:13:46.596Z,40.92
2023-05-08T17:16:14.587Z,41.27
2023-05-08T17:18:42.248Z,41.32
2023-05-08T17:21:10.371Z,41.16
2023-05-08T17:23:38.649Z,42.75
2023-05-08T17:26:06.340Z,42.10
2023-05-08T17:28:34.059Z,42.34
2023-05-08T17:31:01.953Z,43.57
2023-05-08T17:33:29.694Z,44.31
2023-05-08T17:35:57.378Z,44.02
2023-05-08T17:38:25.354Z,44.71
2023-05-08T17:40:58.215Z,45.29
2023-05-08T17:43:29.393Z,45.13
2023-05-08T17:45:57.603Z,45.48
2023-05-08T17:48:25.377Z,46.12
2023-05-08T17:50:54.650Z,45.20
2023-05-08T17:53:25.611Z,45.31
2023-05-08T17:55:53.608Z,45.13
2023-05-08T17:58:21.386Z,46.26
2023-05-08T18:00:49.300Z,44.95
2023-05-08T18:03:19.343Z,45.83
2023-05-08T18:05:47.251Z,47.01
2023-05-08T18:08:15.342Z,46.99
2023-05-08T18:10:43.841Z,46.02
2023-05-08T18:13:11.828Z,44.83
2023-05-08T18:15:40.462Z,45.75
2023-05-08T18:18:08.920Z,44.70
2023-05-08T18:20:36.789Z,45.70
2023-05-08T18:23:04.490Z,45.59
2023-05-08T18:25:32.490Z,46.32
2023-05-08T18:28:00.908Z,45.83
2023-05-08T18:30:28.735Z,46.79
2023-05-08T18:32:56.800Z,47.21
2023-05-08T18:35:24.672Z,45.89
2023-05-08T18:37:52.461Z,47.05
2023-05-08T18:40:20.928Z,46.21
2023-05-08T18:42:48.806Z,46.48
2023-05-08T18:45:16.642Z,46.83
2023-05-08T18:47:45.182Z,45.95
2023-05-08T18:50:14.898Z,46.63
2023-05-08T18:52:43.263Z,46.17
2023-05-08T18:55:11.223Z,47.31
2023-05-08T18:57:38.910Z,46.32
2023-05-08T19:00:07.278Z,47.97
2023-05-08T19:02:35.712Z,47.99
2023-05-08T19:05:04.204Z,48.15
2023-05-08T19:07:32.123Z,49.11
2023-05-08T19:10:00.170Z,49.43
2023-05-08T19:12:28.226Z,48.66
2023-05-08T19:14:55.906Z,48.40
2023-05-08T19:17:24.050Z,48.85
2023-05-08T19:19:52.912Z,48.82
2023-05-08T19:22:21.001Z,49.67
2023-05-08T19:24:49.130Z,49.17
2023-05-08T19:27:17.211Z,49.41
2023-05-08T19:29:45.624Z,50.65
2023-05-08T19:32:13.698Z,49.58
2023-05-08T19:34:41.588Z,49.21
2023-05-08T19:37:09.521Z,49.65
2023-05-08T19:39:37.745Z,50.68
2023-05-08T19:42:05.667Z,50.66
2023-05-08T19:44:33.342Z,50.00
2023-05-08T19:47:03.144Z,51.23
2023-05-08T19:49:31.662Z,50.01
2023-05-08T19:51:59.477Z,50.32
2023-05-08T19:54:28.957Z,50.67
2023-05-08T19:56:56.752Z,50.18
2023-05-08T19:59:24.874Z,51.42
2023-05-08T20:01:52.884Z,50.34
2023-05-08T20:04:21.006Z,50.52
2023-05-08T20:06:48.681Z,49.87
2023-05-08T20:09:16.317Z,50.18
2023-05-08T20:11:44.559Z,50.64
2023-05-08T20:14:12.596Z,50.31
2023-05-08T20:16:40.314Z,50.46
2023-05-08T20:19:08.317Z,50.76
2023-05-08T20:21:36.347Z,51.73
2023-05-08T20:24:04.128Z,50.44
2023-05-08T20:26:33.161Z,51.60
2023-05-08T20:29:00.788Z,51.84
2023-05-08T20:31:28.602Z,51.31
2023-05-08T20:33:56.790Z,51.65
2023-05-08T20:36:24.428Z,51.63
2023-05-08T20:38:52.351Z,51.67
2023-05-08T20:41:20.372Z,50.65
2023-05-08T20:43:48.061Z,51.26
2023-05-08T20:46:15.733Z,51.69
2023-05-08T20:48:43.884Z,50.79
2023-05-08T20:51:11.485Z,50.80
2023-05-08T20:53:39.223Z,51.56
2023-05-08T20:56:07.077Z,52.36
2023-05-08T20:58:34.838Z,51.28
2023-05-08T21:01:02.703Z,51.21
2023-05-08T21:03:30.746Z,50.59
2023-05-08T21:05:58.414Z,51.00
2023-05-08T21:08:26.024Z,52.37
2023-05-08T21:10:54.086Z,52.17
2023-05-08T21:13:21.680Z,51.72
2023-05-08T21:15:49.588Z,50.88
2023-05-08T21:18:17.932Z,50.87
2023-05-08T21:20:45.631Z,52.51
2023-05-08T21:23:13.203Z,51.13
2023-05-08T21:25:41.205Z,52.03
2023-05-08T21:28:08.876Z,51.71
2023-05-08T21:30:36.595Z,52.72
2023-05-08T21:33:04.549Z,53.38
2023-05-08T21:35:32.365Z,53.26
2023-05-08T21:38:00.042Z,52.30
2023-05-08T21:40:27.998Z,52.75
2023-05-08T21:42:55.662Z,52.88
2023-05-08T21:45:23.358Z,52.11
2023-05-08T21:47:51.450Z,53.56
2023-05-08T21:50:19.177Z,53.16
2023-05-08T21:52:47.020Z,52.74
2023-05-08T21:55:15.284Z,54.07
2023-05-08T21:57:43.268Z,55.75
2023-05-08T22:00:11.425Z,54.46
2023-05-08T22:02:47.164Z,54.09
2023-05-08T22:05:15.487Z,53.84
2023-05-08T22:07:43.502Z,54.41
2023-05-08T22:10:11.273Z,54.34
2023-05-08T22:12:39.397Z,54.88
2023-05-08T22:15:18.064Z,54.16
2023-05-08T22:17:54.048Z,55.52
2023-05-08T22:20:22.079Z,56.48
2023-05-08T22:22:49.784Z,56.90
2023-05-08T22:25:17.695Z,56.50
2023-05-08T22:27:46.159Z,55.80
2023-05-08T22:30:14.443Z,56.08
2023-05-08T22:32:42.405Z,56.63
2023-05-08T22:35:10.105Z,57.06
2023-05-08T22:37:37.710Z,57.98
2023-05-08T22:40:06.702Z,58.24
2023-05-08T22:42:34.389Z,57.93
2023-05-08T22:45:02.040Z,57.04
2023-05-08T22:47:30.328Z,56.65
2023-05-08T22:49:58.045Z,57.42
2023-05-08T22:52:25.704Z,57.29
2023-05-08T22:54:53.606Z,57.90
2023-05-08T22:57:21.939Z,58.61
2023-05-08T22:59:49.580Z,59.47
2023-05-08T23:02:17.538Z,58.90
2023-05-08T23:04:45.415Z,58.42
2023-05-08T23:07:13.233Z,58.60
2023-05-08T23:09:41.175Z,58.04
2023-05-08T23:12:08.744Z,58.73
2023-05-08T23:14:36.449Z,58.57
2023-05-08T23:17:04.537Z,59.02
2023-05-08T23:19:32.540Z,60.06
2023-05-08T23:22:00.173Z,59.59
2023-05-08T23:24:28.259Z,58.48
2023-05-08T23:26:55.837Z,58.51
2023-05-08T23:29:23.466Z,58.51
2023-05-08T23:31:51.502Z,59.34
2023-05-08T23:34:19.279Z,59.88
2023-05-08T23:36:47.131Z,59.58
2023-05-08T23:39:15.504Z,59.38
2023-05-08T23:41:43.113Z,58.42
2023-05-08T23:44:10.755Z,58.89
2023-05-08T23:46:38.885Z,58.61
2023-05-08T23:49:06.773Z,59.02
2023-05-08T23:51:34.387Z,59.02
2023-05-08T23:54:02.340Z,59.31
2023-05-08T23:56:30.275Z,59.00
2023-05-08T23:58:57.907Z,59.32
